Urb La Arboleda, Puerto Rico
Current Conditions -  °F | °C
As of 2:56 PM on Saturday 25 Oct 2014 (Local Time) from TJSJ Reporting Station
Scattered Clouds Scattered Clouds  
Wind Chill: 91°   Ceiling: Unl
Heat Index: 98°   Visibility: 10mi
Dew Point: 72°   Wind: 9mph
Humidity: 53%   Direction: 160°SSE
Pressure: 29.84"   Gusts: 17mph
Location:  18.0836°N, 66.3566°W
Report Text: TJSJ 251856Z 16008G15KT 10SM FEW047 SCT120 33/22 A2984 RMK AO2 SLP104 T03280222
Loading
Personal Weather Stations






























Interactive Weather Map
Tropical Storm Tracking
New forecast layout! Learn more

10-Day Weather Forecast

Advertisements
Track Severe Weather on mobile